sensor_id;sensor_type;location;lat;lon;timestamp;pressure;altitude;pressure_sealevel;temperature;humidity
75549;BME280;64133;56.002;37.208;2022-12-18T00:01:16;98671.12;;;-5.71;90.75
75549;BME280;64133;56.002;37.208;2022-12-18T00:06:20;98671.30;;;-5.77;90.73
75549;BME280;64133;56.002;37.208;2022-12-18T00:11:25;98661.93;;;-5.78;91.00
75549;BME280;64133;56.002;37.208;2022-12-18T00:16:29;98646.73;;;-5.69;91.51
75549;BME280;64133;56.002;37.208;2022-12-18T00:21:34;98643.16;;;-5.80;90.71
75549;BME280;64133;56.002;37.208;2022-12-18T00:26:39;98633.22;;;-5.76;90.70
75549;BME280;64133;56.002;37.208;2022-12-18T00:31:43;98636.41;;;-5.83;90.90
75549;BME280;64133;56.002;37.208;2022-12-18T00:36:48;98622.57;;;-5.77;91.75
75549;BME280;64133;56.002;37.208;2022-12-18T00:41:53;98615.72;;;-5.76;91.02
75549;BME280;64133;56.002;37.208;2022-12-18T00:47:15;98604.25;;;-5.79;91.27
75549;BME280;64133;56.002;37.208;2022-12-18T00:52:20;98600.20;;;-5.72;91.04
75549;BME280;64133;56.002;37.208;2022-12-18T00:57:25;98596.56;;;-5.79;91.49
75549;BME280;64133;56.002;37.208;2022-12-18T01:02:30;98589.31;;;-5.80;91.47
75549;BME280;64133;56.002;37.208;2022-12-18T01:07:35;98594.89;;;-5.81;91.46
75549;BME280;64133;56.002;37.208;2022-12-18T01:12:40;98602.16;;;-5.95;90.80
75549;BME280;64133;56.002;37.208;2022-12-18T01:17:44;98584.63;;;-5.81;91.07
75549;BME280;64133;56.002;37.208;2022-12-18T01:22:49;98578.41;;;-5.87;91.21
75549;BME280;64133;56.002;37.208;2022-12-18T01:27:54;98568.98;;;-5.86;91.12
75549;BME280;64133;56.002;37.208;2022-12-18T01:32:58;98574.11;;;-5.86;91.07
75549;BME280;64133;56.002;37.208;2022-12-18T01:38:03;98572.75;;;-5.83;91.15
75549;BME280;64133;56.002;37.208;2022-12-18T01:43:10;98567.05;;;-5.93;90.99
75549;BME280;64133;56.002;37.208;2022-12-18T01:48:14;98559.38;;;-5.79;91.24
75549;BME280;64133;56.002;37.208;2022-12-18T01:53:20;98550.14;;;-5.85;91.17
75549;BME280;64133;56.002;37.208;2022-12-18T01:58:25;98553.21;;;-5.87;91.15
75549;BME280;64133;56.002;37.208;2022-12-18T02:03:28;98558.97;;;-5.94;91.06
75549;BME280;64133;56.002;37.208;2022-12-18T02:08:34;98555.20;;;-5.82;91.25
75549;BME280;64133;56.002;37.208;2022-12-18T02:13:40;98550.14;;;-5.85;90.86
75549;BME280;64133;56.002;37.208;2022-12-18T02:18:45;98555.76;;;-6.00;90.80
75549;BME280;64133;56.002;37.208;2022-12-18T02:23:55;98566.28;;;-5.82;91.02
75549;BME280;64133;56.002;37.208;2022-12-18T02:28:54;98567.96;;;-5.81;90.83
75549;BME280;64133;56.002;37.208;2022-12-18T02:34:00;98559.94;;;-5.83;90.92
75549;BME280;64133;56.002;37.208;2022-12-18T02:39:03;98553.66;;;-5.88;90.95
75549;BME280;64133;56.002;37.208;2022-12-18T02:44:09;98548.61;;;-5.91;90.40
75549;BME280;64133;56.002;37.208;2022-12-18T02:49:19;98555.08;;;-6.07;89.75
75549;BME280;64133;56.002;37.208;2022-12-18T02:54:35;98560.70;;;-5.94;90.06
75549;BME280;64133;56.002;37.208;2022-12-18T02:59:40;98567.30;;;-6.00;89.62
75549;BME280;64133;56.002;37.208;2022-12-18T03:04:45;98568.85;;;-5.82;90.42
75549;BME280;64133;56.002;37.208;2022-12-18T03:09:49;98570.32;;;-5.88;89.98
75549;BME280;64133;56.002;37.208;2022-12-18T03:14:55;98572.44;;;-5.87;89.71
75549;BME280;64133;56.002;37.208;2022-12-18T03:19:59;98563.55;;;-5.90;89.81
75549;BME280;64133;56.002;37.208;2022-12-18T03:25:05;98562.43;;;-5.95;89.18
75549;BME280;64133;56.002;37.208;2022-12-18T03:30:11;98559.16;;;-6.00;89.14
75549;BME280;64133;56.002;37.208;2022-12-18T03:35:16;98548.03;;;-5.86;89.90
75549;BME280;64133;56.002;37.208;2022-12-18T03:40:20;98556.08;;;-5.96;89.56
75549;BME280;64133;56.002;37.208;2022-12-18T03:45:27;98557.51;;;-6.02;89.63
75549;BME280;64133;56.002;37.208;2022-12-18T03:50:33;98582.33;;;-5.90;89.47
75549;BME280;64133;56.002;37.208;2022-12-18T03:55:35;98574.54;;;-6.00;89.47
75549;BME280;64133;56.002;37.208;2022-12-18T04:05:54;98558.16;;;-6.11;89.23
75549;BME280;64133;56.002;37.208;2022-12-18T04:10:58;98551.17;;;-6.20;89.30
75549;BME280;64133;56.002;37.208;2022-12-18T04:16:03;98564.17;;;-6.12;88.59
75549;BME280;64133;56.002;37.208;2022-12-18T04:21:07;98578.41;;;-6.16;88.71
75549;BME280;64133;56.002;37.208;2022-12-18T04:26:12;98585.59;;;-6.14;88.48
75549;BME280;64133;56.002;37.208;2022-12-18T04:31:17;98603.91;;;-6.12;88.89
75549;BME280;64133;56.002;37.208;2022-12-18T04:36:21;98603.12;;;-6.14;88.66
75549;BME280;64133;56.002;37.208;2022-12-18T04:41:26;98619.33;;;-6.13;88.52
75549;BME280;64133;56.002;37.208;2022-12-18T04:46:31;98622.54;;;-6.05;88.21
75549;BME280;64133;56.002;37.208;2022-12-18T04:51:35;98624.78;;;-6.09;88.06
75549;BME280;64133;56.002;37.208;2022-12-18T04:56:40;98631.95;;;-6.22;87.16
75549;BME280;64133;56.002;37.208;2022-12-18T05:01:45;98641.36;;;-6.22;87.80
75549;BME280;64133;56.002;37.208;2022-12-18T05:06:49;98633.23;;;-6.22;87.70
75549;BME280;64133;56.002;37.208;2022-12-18T05:11:54;98636.06;;;-6.33;87.73
75549;BME280;64133;56.002;37.208;2022-12-18T05:16:58;98635.66;;;-6.34;88.00
75549;BME280;64133;56.002;37.208;2022-12-18T05:22:03;98642.98;;;-6.20;88.37
75549;BME280;64133;56.002;37.208;2022-12-18T05:27:08;98641.19;;;-6.16;87.63
75549;BME280;64133;56.002;37.208;2022-12-18T05:32:12;98644.56;;;-6.30;87.06
75549;BME280;64133;56.002;37.208;2022-12-18T05:37:17;98656.76;;;-6.24;87.63
75549;BME280;64133;56.002;37.208;2022-12-18T05:42:22;98652.58;;;-6.26;87.32
75549;BME280;64133;56.002;37.208;2022-12-18T05:47:27;98666.34;;;-6.30;86.89
75549;BME280;64133;56.002;37.208;2022-12-18T05:52:32;98669.27;;;-6.12;87.64
75549;BME280;64133;56.002;37.208;2022-12-18T05:57:37;98685.92;;;-6.12;87.24
75549;BME280;64133;56.002;37.208;2022-12-18T06:02:41;98689.84;;;-6.15;86.70
75549;BME280;64133;56.002;37.208;2022-12-18T06:07:46;98688.72;;;-6.21;86.34
75549;BME280;64133;56.002;37.208;2022-12-18T06:12:51;98698.53;;;-6.20;86.43
75549;BME280;64133;56.002;37.208;2022-12-18T06:17:55;98705.94;;;-6.26;85.97
75549;BME280;64133;56.002;37.208;2022-12-18T06:23:00;98713.95;;;-6.05;86.37
75549;BME280;64133;56.002;37.208;2022-12-18T06:28:05;98728.56;;;-6.25;86.10
75549;BME280;64133;56.002;37.208;2022-12-18T06:33:10;98733.02;;;-6.16;87.06
75549;BME280;64133;56.002;37.208;2022-12-18T06:38:14;98742.97;;;-6.03;86.86
75549;BME280;64133;56.002;37.208;2022-12-18T06:43:19;98751.45;;;-6.01;86.94
75549;BME280;64133;56.002;37.208;2022-12-18T06:48:24;98765.61;;;-5.88;86.68
75549;BME280;64133;56.002;37.208;2022-12-18T06:53:28;98770.66;;;-6.00;86.07
75549;BME280;64133;56.002;37.208;2022-12-18T06:58:33;98774.23;;;-6.07;85.96
75549;BME280;64133;56.002;37.208;2022-12-18T07:03:38;98776.73;;;-5.88;86.21
75549;BME280;64133;56.002;37.208;2022-12-18T07:08:42;98797.22;;;-5.70;86.34
75549;BME280;64133;56.002;37.208;2022-12-18T07:13:47;98795.89;;;-5.68;85.87
75549;BME280;64133;56.002;37.208;2022-12-18T07:18:52;98803.56;;;-5.85;85.66
75549;BME280;64133;56.002;37.208;2022-12-18T07:23:56;98806.92;;;-5.65;85.56
75549;BME280;64133;56.002;37.208;2022-12-18T07:29:01;98799.34;;;-5.69;85.30
75549;BME280;64133;56.002;37.208;2022-12-18T07:34:09;98812.27;;;-5.58;85.04
75549;BME280;64133;56.002;37.208;2022-12-18T07:39:11;98824.91;;;-5.50;85.05
75549;BME280;64133;56.002;37.208;2022-12-18T07:44:16;98842.61;;;-5.39;84.78
75549;BME280;64133;56.002;37.208;2022-12-18T07:49:20;98848.98;;;-5.38;84.62
75549;BME280;64133;56.002;37.208;2022-12-18T07:54:25;98859.89;;;-5.29;84.36
75549;BME280;64133;56.002;37.208;2022-12-18T07:59:30;98857.72;;;-5.12;84.74
75549;BME280;64133;56.002;37.208;2022-12-18T08:04:36;98860.09;;;-5.04;84.16
75549;BME280;64133;56.002;37.208;2022-12-18T08:09:40;98866.84;;;-5.02;83.99
75549;BME280;64133;56.002;37.208;2022-12-18T08:14:45;98858.89;;;-4.93;83.44
75549;BME280;64133;56.002;37.208;2022-12-18T08:19:50;98868.12;;;-5.17;82.90
75549;BME280;64133;56.002;37.208;2022-12-18T08:24:54;98881.94;;;-5.06;83.51
75549;BME280;64133;56.002;37.208;2022-12-18T08:29:59;98904.67;;;-4.92;83.48
75549;BME280;64133;56.002;37.208;2022-12-18T08:35:04;98907.62;;;-4.90;83.39
75549;BME280;64133;56.002;37.208;2022-12-18T08:40:11;98913.66;;;-4.92;83.60
75549;BME280;64133;56.002;37.208;2022-12-18T08:45:16;98930.36;;;-4.92;82.80
75549;BME280;64133;56.002;37.208;2022-12-18T08:50:21;98922.91;;;-4.85;83.55
75549;BME280;64133;56.002;37.208;2022-12-18T08:55:25;98929.84;;;-4.89;82.87
75549;BME280;64133;56.002;37.208;2022-12-18T09:00:30;98938.95;;;-4.93;82.76
75549;BME280;64133;56.002;37.208;2022-12-18T09:05:35;98931.38;;;-4.82;82.91
75549;BME280;64133;56.002;37.208;2022-12-18T09:10:43;98934.92;;;-4.71;83.31
75549;BME280;64133;56.002;37.208;2022-12-18T09:15:49;98951.09;;;-4.66;82.97
75549;BME280;64133;56.002;37.208;2022-12-18T09:20:52;98963.69;;;-4.73;82.87
75549;BME280;64133;56.002;37.208;2022-12-18T09:26:00;98979.17;;;-4.60;82.76
75549;BME280;64133;56.002;37.208;2022-12-18T09:31:06;98983.94;;;-4.62;82.65
75549;BME280;64133;56.002;37.208;2022-12-18T09:36:11;99000.32;;;-4.66;82.45
75549;BME280;64133;56.002;37.208;2022-12-18T09:41:21;99015.97;;;-4.75;83.05
75549;BME280;64133;56.002;37.208;2022-12-18T09:46:25;99018.01;;;-4.88;82.51
75549;BME280;64133;56.002;37.208;2022-12-18T09:51:28;99021.08;;;-4.90;83.04
75549;BME280;64133;56.002;37.208;2022-12-18T09:56:34;99016.12;;;-4.98;82.76
75549;BME280;64133;56.002;37.208;2022-12-18T10:01:37;99012.33;;;-5.01;83.07
75549;BME280;64133;56.002;37.208;2022-12-18T10:06:44;99029.08;;;-5.02;82.96
75549;BME280;64133;56.002;37.208;2022-12-18T10:11:51;99025.95;;;-4.97;82.78
75549;BME280;64133;56.002;37.208;2022-12-18T10:16:58;99032.35;;;-4.96;82.51
75549;BME280;64133;56.002;37.208;2022-12-18T10:22:02;99036.33;;;-5.02;82.02
75549;BME280;64133;56.002;37.208;2022-12-18T10:27:13;99037.33;;;-5.08;83.00
75549;BME280;64133;56.002;37.208;2022-12-18T10:32:17;99052.08;;;-4.98;82.87
75549;BME280;64133;56.002;37.208;2022-12-18T10:37:21;99055.03;;;-4.97;83.12
75549;BME280;64133;56.002;37.208;2022-12-18T10:42:25;99054.91;;;-4.91;83.51
75549;BME280;64133;56.002;37.208;2022-12-18T10:47:30;99059.27;;;-4.94;83.22
75549;BME280;64133;56.002;37.208;2022-12-18T10:52:34;99075.91;;;-4.93;83.19
75549;BME280;64133;56.002;37.208;2022-12-18T10:57:39;99082.33;;;-4.93;83.00
75549;BME280;64133;56.002;37.208;2022-12-18T11:02:44;99089.14;;;-4.90;82.99
75549;BME280;64133;56.002;37.208;2022-12-18T11:07:49;99094.56;;;-4.85;83.38
75549;BME280;64133;56.002;37.208;2022-12-18T11:12:54;99099.03;;;-4.93;83.04
75549;BME280;64133;56.002;37.208;2022-12-18T11:18:19;99090.38;;;-4.89;82.89
75549;BME280;64133;56.002;37.208;2022-12-18T11:23:23;99108.22;;;-5.00;82.68
75549;BME280;64133;56.002;37.208;2022-12-18T11:28:33;99113.77;;;-5.01;82.42
75549;BME280;64133;56.002;37.208;2022-12-18T11:33:34;99124.70;;;-5.11;82.64
75549;BME280;64133;56.002;37.208;2022-12-18T11:38:39;99124.58;;;-5.04;82.84
75549;BME280;64133;56.002;37.208;2022-12-18T11:43:44;99132.45;;;-5.12;82.83
75549;BME280;64133;56.002;37.208;2022-12-18T11:48:49;99140.84;;;-5.06;83.01
75549;BME280;64133;56.002;37.208;2022-12-18T11:53:53;99144.19;;;-5.02;82.67
75549;BME280;64133;56.002;37.208;2022-12-18T11:59:01;99158.52;;;-5.11;82.74
75549;BME280;64133;56.002;37.208;2022-12-18T12:09:53;99171.44;;;-4.95;82.79
75549;BME280;64133;56.002;37.208;2022-12-18T12:14:59;99188.48;;;-4.92;82.67
75549;BME280;64133;56.002;37.208;2022-12-18T12:20:04;99199.59;;;-4.90;82.67
75549;BME280;64133;56.002;37.208;2022-12-18T12:25:15;99188.05;;;-5.11;83.20
75549;BME280;64133;56.002;37.208;2022-12-18T12:30:20;99204.30;;;-5.11;83.16
75549;BME280;64133;56.002;37.208;2022-12-18T12:35:28;99212.05;;;-5.14;83.53
75549;BME280;64133;56.002;37.208;2022-12-18T12:40:35;99219.75;;;-5.14;83.94
75549;BME280;64133;56.002;37.208;2022-12-18T12:45:38;99229.28;;;-5.19;84.09
75549;BME280;64133;56.002;37.208;2022-12-18T12:50:41;99247.24;;;-5.17;84.22
75549;BME280;64133;56.002;37.208;2022-12-18T12:55:46;99261.50;;;-5.25;84.31
75549;BME280;64133;56.002;37.208;2022-12-18T13:00:53;99271.30;;;-5.23;84.20
75549;BME280;64133;56.002;37.208;2022-12-18T13:05:59;99281.16;;;-5.22;84.38
75549;BME280;64133;56.002;37.208;2022-12-18T13:11:11;99293.33;;;-5.34;83.86
75549;BME280;64133;56.002;37.208;2022-12-18T13:16:31;99303.64;;;-5.35;84.08
75549;BME280;64133;56.002;37.208;2022-12-18T13:21:36;99310.06;;;-5.35;83.81
75549;BME280;64133;56.002;37.208;2022-12-18T13:26:40;99323.99;;;-5.50;83.70
75549;BME280;64133;56.002;37.208;2022-12-18T13:32:22;99342.55;;;-5.34;83.74
75549;BME280;64133;56.002;37.208;2022-12-18T13:37:44;99347.53;;;-5.50;83.34
75549;BME280;64133;56.002;37.208;2022-12-18T13:42:48;99371.86;;;-5.47;83.49
75549;BME280;64133;56.002;37.208;2022-12-18T13:48:29;99388.70;;;-5.57;83.25
75549;BME280;64133;56.002;37.208;2022-12-18T13:53:35;99388.02;;;-5.68;83.50
75549;BME280;64133;56.002;37.208;2022-12-18T13:58:40;99404.47;;;-5.81;83.57
75549;BME280;64133;56.002;37.208;2022-12-18T14:03:44;99413.73;;;-5.72;83.39
75549;BME280;64133;56.002;37.208;2022-12-18T14:08:49;99426.56;;;-5.72;83.41
75549;BME280;64133;56.002;37.208;2022-12-18T14:13:54;99425.90;;;-5.85;83.27
75549;BME280;64133;56.002;37.208;2022-12-18T14:18:59;99437.00;;;-5.85;83.42
75549;BME280;64133;56.002;37.208;2022-12-18T14:24:12;99450.30;;;-5.88;82.94
75549;BME280;64133;56.002;37.208;2022-12-18T14:29:26;99458.42;;;-5.87;83.47
75549;BME280;64133;56.002;37.208;2022-12-18T14:34:30;99467.13;;;-5.96;83.50
75549;BME280;64133;56.002;37.208;2022-12-18T14:39:34;99468.47;;;-6.00;83.52
75549;BME280;64133;56.002;37.208;2022-12-18T14:44:39;99481.30;;;-6.02;83.46
75549;BME280;64133;56.002;37.208;2022-12-18T14:49:44;99486.62;;;-6.19;83.29
75549;BME280;64133;56.002;37.208;2022-12-18T14:54:49;99489.85;;;-6.38;83.44
75549;BME280;64133;56.002;37.208;2022-12-18T14:59:55;99504.66;;;-6.64;82.73
75549;BME280;64133;56.002;37.208;2022-12-18T15:05:03;99427.56;;;-7.21;83.16
75549;BME280;64133;56.002;37.208;2022-12-18T15:10:11;99523.17;;;-6.78;82.55
75549;BME280;64133;56.002;37.208;2022-12-18T15:15:46;99523.36;;;-7.00;81.96
75549;BME280;64133;56.002;37.208;2022-12-18T15:20:52;99537.20;;;-7.25;81.57
75549;BME280;64133;56.002;37.208;2022-12-18T15:25:59;99545.80;;;-7.37;81.59
75549;BME280;64133;56.002;37.208;2022-12-18T15:31:05;99559.56;;;-7.55;81.55
75549;BME280;64133;56.002;37.208;2022-12-18T15:36:11;99565.63;;;-7.76;81.56
75549;BME280;64133;56.002;37.208;2022-12-18T15:46:34;99566.57;;;-7.97;81.54
75549;BME280;64133;56.002;37.208;2022-12-18T15:51:39;99588.31;;;-7.98;81.07
75549;BME280;64133;56.002;37.208;2022-12-18T15:56:44;99587.48;;;-8.03;81.54
75549;BME280;64133;56.002;37.208;2022-12-18T16:02:10;99587.53;;;-8.17;81.49
75549;BME280;64133;56.002;37.208;2022-12-18T16:07:17;99598.16;;;-8.19;81.56
75549;BME280;64133;56.002;37.208;2022-12-18T16:12:22;99599.97;;;-8.40;81.85
75549;BME280;64133;56.002;37.208;2022-12-18T16:17:26;99608.42;;;-8.30;81.82
75549;BME280;64133;56.002;37.208;2022-12-18T16:22:35;99621.24;;;-8.42;81.48
75549;BME280;64133;56.002;37.208;2022-12-18T16:27:39;99634.87;;;-8.55;81.88
75549;BME280;64133;56.002;37.208;2022-12-18T16:32:44;99642.11;;;-8.55;82.14
75549;BME280;64133;56.002;37.208;2022-12-18T16:37:49;99654.03;;;-8.65;82.31
75549;BME280;64133;56.002;37.208;2022-12-18T16:42:56;99654.87;;;-8.58;82.27
75549;BME280;64133;56.002;37.208;2022-12-18T16:48:00;99675.31;;;-8.61;82.21
75549;BME280;64133;56.002;37.208;2022-12-18T16:53:05;99670.17;;;-8.79;82.44
75549;BME280;64133;56.002;37.208;2022-12-18T16:58:10;99674.02;;;-8.58;82.50
75549;BME280;64133;56.002;37.208;2022-12-18T17:03:15;99690.63;;;-8.59;82.13
75549;BME280;64133;56.002;37.208;2022-12-18T17:08:19;99697.39;;;-8.94;82.38
75549;BME280;64133;56.002;37.208;2022-12-18T17:13:27;99698.23;;;-8.98;82.28
75549;BME280;64133;56.002;37.208;2022-12-18T17:18:32;99708.39;;;-9.16;81.98
75549;BME280;64133;56.002;37.208;2022-12-18T17:23:37;99717.30;;;-9.19;82.02
75549;BME280;64133;56.002;37.208;2022-12-18T17:28:42;99730.47;;;-9.26;81.35
75549;BME280;64133;56.002;37.208;2022-12-18T17:33:53;99741.79;;;-9.61;81.40
75549;BME280;64133;56.002;37.208;2022-12-18T17:38:58;99751.02;;;-9.81;81.91
75549;BME280;64133;56.002;37.208;2022-12-18T17:44:04;99748.01;;;-9.85;81.42
75549;BME280;64133;56.002;37.208;2022-12-18T17:49:08;99761.23;;;-9.78;81.40
75549;BME280;64133;56.002;37.208;2022-12-18T17:54:13;99777.28;;;-9.90;81.20
75549;BME280;64133;56.002;37.208;2022-12-18T17:59:17;99781.16;;;-9.82;81.61
75549;BME280;64133;56.002;37.208;2022-12-18T18:04:22;99779.92;;;-9.79;81.44
75549;BME280;64133;56.002;37.208;2022-12-18T18:09:27;99786.20;;;-9.89;81.28
75549;BME280;64133;56.002;37.208;2022-12-18T18:14:32;99785.87;;;-9.79;81.57
75549;BME280;64133;56.002;37.208;2022-12-18T18:19:39;99792.96;;;-9.94;81.08
75549;BME280;64133;56.002;37.208;2022-12-18T18:24:41;99804.00;;;-9.96;81.63
75549;BME280;64133;56.002;37.208;2022-12-18T18:29:46;99818.33;;;-10.06;81.86
75549;BME280;64133;56.002;37.208;2022-12-18T18:34:51;99820.38;;;-10.15;81.81
75549;BME280;64133;56.002;37.208;2022-12-18T18:39:56;99813.55;;;-10.19;81.64
75549;BME280;64133;56.002;37.208;2022-12-18T18:45:01;99844.69;;;-10.05;81.54
75549;BME280;64133;56.002;37.208;2022-12-18T18:50:07;99849.28;;;-10.14;81.34
75549;BME280;64133;56.002;37.208;2022-12-18T18:55:12;99865.92;;;-10.02;81.66
75549;BME280;64133;56.002;37.208;2022-12-18T19:05:58;99879.28;;;-10.30;81.08
75549;BME280;64133;56.002;37.208;2022-12-18T19:11:04;99890.80;;;-10.21;80.97
75549;BME280;64133;56.002;37.208;2022-12-18T19:16:08;99901.80;;;-10.24;80.97
75549;BME280;64133;56.002;37.208;2022-12-18T19:21:12;99906.47;;;-10.23;80.92
75549;BME280;64133;56.002;37.208;2022-12-18T19:26:17;99921.72;;;-10.31;80.96
75549;BME280;64133;56.002;37.208;2022-12-18T19:31:22;99931.08;;;-10.24;81.09
75549;BME280;64133;56.002;37.208;2022-12-18T19:36:27;99942.89;;;-10.35;81.04
75549;BME280;64133;56.002;37.208;2022-12-18T19:41:31;99945.45;;;-10.32;80.73
75549;BME280;64133;56.002;37.208;2022-12-18T19:46:36;99952.71;;;-10.28;81.08
75549;BME280;64133;56.002;37.208;2022-12-18T19:51:42;99951.45;;;-10.24;81.07
75549;BME280;64133;56.002;37.208;2022-12-18T19:56:46;99950.58;;;-10.30;80.99
75549;BME280;64133;56.002;37.208;2022-12-18T20:01:51;99959.07;;;-10.64;80.94
75549;BME280;64133;56.002;37.208;2022-12-18T20:06:56;99963.73;;;-10.64;81.13
75549;BME280;64133;56.002;37.208;2022-12-18T20:12:01;99963.42;;;-10.57;81.42
75549;BME280;64133;56.002;37.208;2022-12-18T20:17:06;99972.81;;;-10.51;81.16
75549;BME280;64133;56.002;37.208;2022-12-18T20:22:10;99985.43;;;-10.59;81.35
75549;BME280;64133;56.002;37.208;2022-12-18T20:27:15;99988.33;;;-10.66;81.03
75549;BME280;64133;56.002;37.208;2022-12-18T20:32:20;99999.36;;;-10.65;81.64
75549;BME280;64133;56.002;37.208;2022-12-18T20:37:24;100002.34;;;-10.64;81.06
75549;BME280;64133;56.002;37.208;2022-12-18T20:42:29;100000.57;;;-10.70;81.78
75549;BME280;64133;56.002;37.208;2022-12-18T20:47:34;99999.85;;;-10.59;81.61
75549;BME280;64133;56.002;37.208;2022-12-18T20:52:39;100007.49;;;-10.58;81.56
75549;BME280;64133;56.002;37.208;2022-12-18T20:57:44;100002.34;;;-10.64;81.59
75549;BME280;64133;56.002;37.208;2022-12-18T21:02:48;100001.11;;;-10.61;81.58
75549;BME280;64133;56.002;37.208;2022-12-18T21:07:53;100009.66;;;-10.57;81.64
75549;BME280;64133;56.002;37.208;2022-12-18T21:12:58;100016.38;;;-10.61;81.77
75549;BME280;64133;56.002;37.208;2022-12-18T21:18:02;100018.08;;;-10.61;81.61
75549;BME280;64133;56.002;37.208;2022-12-18T21:23:07;100018.21;;;-10.51;81.73
75549;BME280;64133;56.002;37.208;2022-12-18T21:28:12;100012.22;;;-10.54;81.77
75549;BME280;64133;56.002;37.208;2022-12-18T21:33:16;100016.41;;;-10.58;81.90
75549;BME280;64133;56.002;37.208;2022-12-18T21:38:21;100027.17;;;-10.46;82.07
75549;BME280;64133;56.002;37.208;2022-12-18T21:43:26;100020.95;;;-10.67;81.84
75549;BME280;64133;56.002;37.208;2022-12-18T21:48:48;100040.32;;;-10.48;82.36
75549;BME280;64133;56.002;37.208;2022-12-18T21:53:53;100036.87;;;-10.50;82.40
75549;BME280;64133;56.002;37.208;2022-12-18T21:59:00;100042.52;;;-10.42;82.13
75549;BME280;64133;56.002;37.208;2022-12-18T22:04:05;100043.66;;;-10.51;82.31
75549;BME280;64133;56.002;37.208;2022-12-18T22:09:10;100030.55;;;-10.49;82.42
75549;BME280;64133;56.002;37.208;2022-12-18T22:14:14;100032.70;;;-10.45;82.67
75549;BME280;64133;56.002;37.208;2022-12-18T22:19:19;100043.77;;;-10.43;82.46
75549;BME280;64133;56.002;37.208;2022-12-18T22:24:24;100056.88;;;-10.47;82.36
75549;BME280;64133;56.002;37.208;2022-12-18T22:29:28;100058.02;;;-10.56;82.24
75549;BME280;64133;56.002;37.208;2022-12-18T22:34:51;100065.17;;;-10.60;82.50
75549;BME280;64133;56.002;37.208;2022-12-18T22:39:56;100058.08;;;-10.53;82.62
75549;BME280;64133;56.002;37.208;2022-12-18T22:45:00;100063.48;;;-10.59;82.56
75549;BME280;64133;56.002;37.208;2022-12-18T22:50:06;100061.53;;;-10.48;82.54
75549;BME280;64133;56.002;37.208;2022-12-18T22:55:14;100071.34;;;-10.44;82.57
75549;BME280;64133;56.002;37.208;2022-12-18T23:00:18;100081.84;;;-10.51;82.58
75549;BME280;64133;56.002;37.208;2022-12-18T23:05:23;100078.52;;;-10.47;82.96
75549;BME280;64133;56.002;37.208;2022-12-18T23:10:28;100084.87;;;-10.47;83.04
75549;BME280;64133;56.002;37.208;2022-12-18T23:15:32;100090.70;;;-10.54;82.94
75549;BME280;64133;56.002;37.208;2022-12-18T23:20:37;100087.48;;;-10.44;82.63
75549;BME280;64133;56.002;37.208;2022-12-18T23:25:42;100086.56;;;-10.49;83.20
75549;BME280;64133;56.002;37.208;2022-12-18T23:30:46;100096.77;;;-10.46;82.91
75549;BME280;64133;56.002;37.208;2022-12-18T23:35:51;100104.58;;;-10.35;82.82
75549;BME280;64133;56.002;37.208;2022-12-18T23:40:56;100104.73;;;-10.21;82.79
75549;BME280;64133;56.002;37.208;2022-12-18T23:46:00;100092.54;;;-10.11;82.52
75549;BME280;64133;56.002;37.208;2022-12-18T23:51:07;100090.05;;;-10.06;82.63
75549;BME280;64133;56.002;37.208;2022-12-18T23:56:11;100085.06;;;-9.99;82.50
